createdAt,value
2022-08-14T00:02:57.250Z,18.4
2022-08-14T00:08:43.703Z,17.7
2022-08-14T00:14:09.743Z,17.3
2022-08-14T00:19:41.284Z,17.2
2022-08-14T00:25:15.498Z,17.2
2022-08-14T00:30:59.006Z,16.4
2022-08-14T00:36:48.666Z,16.2
2022-08-14T00:42:21.533Z,16.4
2022-08-14T00:47:49.165Z,16.6
2022-08-14T00:53:02.564Z,16.7
2022-08-14T00:58:45.002Z,16.5
2022-08-14T01:04:37.550Z,16.4
2022-08-14T01:10:05.580Z,16.5
2022-08-14T01:15:31.838Z,16.5
2022-08-14T01:21:20.660Z,16.6
2022-08-14T01:26:38.638Z,16.7
2022-08-14T01:32:24.526Z,16.7
2022-08-14T01:37:59.736Z,16.8
2022-08-14T01:43:13.747Z,16.8
2022-08-14T01:48:50.786Z,16.4
2022-08-14T01:54:38.905Z,16.3
2022-08-14T02:00:17.065Z,16.4
2022-08-14T02:05:35.793Z,16.4
2022-08-14T02:11:20.395Z,16.6
2022-08-14T02:17:10.147Z,16.5
2022-08-14T02:22:28.592Z,15.4
2022-08-14T02:28:20.409Z,15.4
2022-08-14T02:33:33.893Z,15.4
2022-08-14T02:39:06.866Z,15.2
2022-08-14T02:44:52.285Z,15.7
2022-08-14T02:50:34.935Z,16
2022-08-14T02:56:17.356Z,15.8
2022-08-14T03:01:43.223Z,15.4
2022-08-14T03:07:08.444Z,15.7
2022-08-14T03:12:49.820Z,15.9
2022-08-14T03:18:11.598Z,15.8
2022-08-14T03:23:54.141Z,15.7
2022-08-14T03:29:31.562Z,14.9
2022-08-14T03:35:00.483Z,14.9
2022-08-14T03:40:43.752Z,15.1
2022-08-14T03:46:38.645Z,15.1
2022-08-14T03:51:49.293Z,14.6
2022-08-14T03:57:24.047Z,14.6
2022-08-14T04:03:09.288Z,14.9
2022-08-14T04:08:23.370Z,15.2
2022-08-14T04:14:08.037Z,15
2022-08-14T04:19:28.233Z,15
2022-08-14T04:25:14.376Z,14.8
2022-08-14T04:30:53.767Z,14.4
2022-08-14T04:36:23.918Z,14.2
2022-08-14T04:42:02.608Z,13.8
2022-08-14T04:47:27.522Z,14.1
2022-08-14T04:53:15.398Z,14.2
2022-08-14T04:58:33.881Z,14.1
2022-08-14T05:04:29.039Z,14.1
2022-08-14T05:09:48.367Z,14.1
2022-08-14T05:15:34.136Z,14
2022-08-14T05:21:04.669Z,14.1
2022-08-14T05:26:42.097Z,14.2
2022-08-14T05:32:12.520Z,14.2
2022-08-14T05:37:51.999Z,14.4
2022-08-14T05:43:19.317Z,15
2022-08-14T05:48:43.099Z,15.6
2022-08-14T05:54:40.811Z,16.2
2022-08-14T05:59:52.101Z,16
2022-08-14T06:05:54.407Z,16.3
2022-08-14T06:11:20.192Z,16.9
2022-08-14T06:16:37.483Z,17
2022-08-14T06:22:12.861Z,17.5
2022-08-14T06:28:04.324Z,17.7
2022-08-14T06:35:01.613Z,17.6
2022-08-14T06:39:17.212Z,17.8
2022-08-14T06:44:48.281Z,17.8
2022-08-14T06:50:27.864Z,18.3
2022-08-14T06:55:57.993Z,18.6
2022-08-14T07:01:39.770Z,18.9
2022-08-14T07:07:08.615Z,19.2
2022-08-14T07:13:02.264Z,19.1
2022-08-14T07:18:41.097Z,19.5
2022-08-14T07:24:21.620Z,19.5
2022-08-14T07:29:48.215Z,19.8
2022-08-14T07:35:10.351Z,19.6
2022-08-14T07:41:06.996Z,20.1
2022-08-14T07:46:35.114Z,20.7
2022-08-14T07:52:30.377Z,20.7
2022-08-14T07:58:01.709Z,20.4
2022-08-14T08:03:23.946Z,20.6
2022-08-14T08:09:14.773Z,20.7
2022-08-14T08:14:55.336Z,20.8
2022-08-14T08:20:08.893Z,21.2
2022-08-14T08:26:07.145Z,22
2022-08-14T08:31:37.476Z,21.9
2022-08-14T08:37:08.805Z,22.5
2022-08-14T08:42:44.769Z,22.3
2022-08-14T08:48:18.134Z,22.2
2022-08-14T08:54:01.264Z,21.8
2022-08-14T08:59:47.683Z,22.4
2022-08-14T09:05:01.235Z,22.8
2022-08-14T09:10:47.810Z,22.2
2022-08-14T09:16:32.321Z,22.7
2022-08-14T09:22:02.423Z,22.9
2022-08-14T09:27:51.347Z,22.3
2022-08-14T09:33:22.798Z,22.9
2022-08-14T09:38:57.895Z,22.5
2022-08-14T09:44:37.380Z,22.3
2022-08-14T09:50:25.845Z,22.2
2022-08-14T09:55:52.801Z,22.9
2022-08-14T10:01:43.075Z,22
2022-08-14T10:07:08.301Z,22.6
2022-08-14T10:12:54.979Z,23
2022-08-14T10:18:35.534Z,22.9
2022-08-14T10:24:09.427Z,23.1
2022-08-14T10:29:38.819Z,23
2022-08-14T10:35:30.850Z,22.7
2022-08-14T10:40:52.122Z,22.7
2022-08-14T10:47:38.201Z,22.8
2022-08-14T10:52:21.943Z,22.5
2022-08-14T10:57:40.864Z,22.7
2022-08-14T11:03:36.064Z,22.7
2022-08-14T11:09:13.350Z,22.7
2022-08-14T11:14:41.152Z,22.8
2022-08-14T11:20:13.894Z,23
2022-08-14T11:25:52.945Z,22.8
2022-08-14T11:31:24.783Z,23.2
2022-08-14T11:37:23.718Z,24
2022-08-14T11:42:56.067Z,23.8
2022-08-14T11:48:59.833Z,23.8
2022-08-14T11:53:54.238Z,23.9
2022-08-14T11:59:50.517Z,24.3
2022-08-14T12:05:25.585Z,24.5
2022-08-14T12:11:02.771Z,24.4
2022-08-14T12:16:30.158Z,24.1
2022-08-14T12:22:17.613Z,24.4
2022-08-14T12:27:52.978Z,24.1
2022-08-14T12:33:35.164Z,24.2
2022-08-14T12:39:15.665Z,24.1
2022-08-14T12:44:50.699Z,24.1
2022-08-14T12:50:24.395Z,24
2022-08-14T12:56:18.187Z,24.1
2022-08-14T13:02:00.509Z,24
2022-08-14T13:07:16.480Z,24
2022-08-14T13:13:12.309Z,24.1
2022-08-14T13:18:25.892Z,23.9
2022-08-14T13:24:02.315Z,24.1
2022-08-14T13:29:31.438Z,24.1
2022-08-14T13:35:24.580Z,24.1
2022-08-14T13:40:56.297Z,23.6
2022-08-14T13:46:35.390Z,23.5
2022-08-14T13:52:48.632Z,23.5
2022-08-14T13:57:36.963Z,23.2
2022-08-14T14:03:36.588Z,23.2
2022-08-14T14:09:01.620Z,23.2
2022-08-14T14:14:45.321Z,23.3
2022-08-14T14:20:34.835Z,23.2
2022-08-14T14:25:49.457Z,23.3
2022-08-14T14:31:32.581Z,23.2
2022-08-14T14:37:22.309Z,23.3
2022-08-14T14:42:40.119Z,23.2
2022-08-14T14:48:15.902Z,23
2022-08-14T14:53:55.497Z,23
2022-08-14T14:59:36.191Z,23.1
2022-08-14T15:05:03.312Z,23.2
2022-08-14T15:10:54.217Z,23.6
2022-08-14T15:16:21.748Z,24
2022-08-14T15:22:12.828Z,24
2022-08-14T15:27:44.258Z,24.1
2022-08-14T15:33:06.525Z,23.9
2022-08-14T15:38:50.308Z,24.2
2022-08-14T15:44:34.473Z,24
2022-08-14T15:50:00.166Z,23.7
2022-08-14T15:55:49.376Z,23.7
2022-08-14T16:01:43.448Z,23.5
2022-08-14T16:07:13.733Z,23.3
2022-08-14T16:12:51.260Z,23.2
2022-08-14T16:18:18.417Z,23.2
2022-08-14T16:23:38.920Z,23.1
2022-08-14T16:29:19.270Z,23.2
2022-08-14T16:35:09.419Z,23.2
2022-08-14T16:40:38.951Z,23.3
2022-08-14T16:46:23.401Z,23.5
2022-08-14T16:52:08.511Z,23.7
2022-08-14T16:57:18.481Z,23.8
2022-08-14T17:03:12.001Z,23.8
2022-08-14T17:08:46.027Z,23.6
2022-08-14T17:14:10.916Z,23.5
2022-08-14T17:19:44.261Z,23.5
2022-08-14T17:25:49.254Z,23.3
2022-08-14T17:31:12.366Z,23.1
2022-08-14T17:36:57.862Z,23
2022-08-14T17:42:13.511Z,23
2022-08-14T17:47:53.101Z,22.9
2022-08-14T17:53:37.794Z,22.8
2022-08-14T17:59:03.884Z,22.7
2022-08-14T18:04:48.777Z,22.5
2022-08-14T18:10:52.762Z,22.1
2022-08-14T18:15:53.771Z,22.1
2022-08-14T18:21:25.189Z,22
2022-08-14T18:27:22.949Z,21.8
2022-08-14T18:32:54.810Z,21.5
2022-08-14T18:38:42.953Z,21.4
2022-08-14T18:43:58.789Z,21
2022-08-14T18:49:41.993Z,20.8
2022-08-14T18:55:05.147Z,20.5
2022-08-14T19:00:33.400Z,19.7
2022-08-14T19:06:18.003Z,19.7
2022-08-14T19:11:56.365Z,19.9
2022-08-14T19:17:40.783Z,19.5
2022-08-14T19:22:56.907Z,19.2
2022-08-14T19:28:37.520Z,19.3
2022-08-14T19:34:29.526Z,19.3
2022-08-14T19:39:54.802Z,19.5
2022-08-14T19:45:29.008Z,19.5
2022-08-14T19:50:51.580Z,19
2022-08-14T19:56:45.014Z,19
2022-08-14T20:02:13.813Z,19
2022-08-14T20:07:56.196Z,19
2022-08-14T20:13:32.813Z,19
2022-08-14T20:18:49.691Z,19.1
2022-08-14T20:24:33.532Z,19
2022-08-14T20:30:26.638Z,18.9
2022-08-14T20:35:43.051Z,19
2022-08-14T20:41:22.372Z,19.1
2022-08-14T20:46:55.670Z,19.1
2022-08-14T20:52:34.856Z,18.4
2022-08-14T20:58:09.806Z,17.7
2022-08-14T21:03:37.254Z,17.5
2022-08-14T21:09:09.418Z,17.7
2022-08-14T21:20:29.031Z,17.8
2022-08-14T21:26:05.483Z,17.9
2022-08-14T21:31:31.739Z,17.9
2022-08-14T21:37:21.463Z,18
2022-08-14T21:42:42.463Z,17.9
2022-08-14T21:48:25.127Z,18
2022-08-14T21:54:30.532Z,18.1
2022-08-14T21:59:44.714Z,18
2022-08-14T22:05:13.138Z,18
2022-08-14T22:10:55.441Z,18
2022-08-14T22:17:00.389Z,18.3
2022-08-14T22:22:00.677Z,17.7
2022-08-14T22:27:29.719Z,17.5
2022-08-14T22:32:59.915Z,17.4
2022-08-14T22:38:35.210Z,17.3
2022-08-14T22:44:28.413Z,17.2
2022-08-14T22:50:29.972Z,17.2
2022-08-14T22:55:20.361Z,17.2
2022-08-14T23:00:54.378Z,17.3
2022-08-14T23:07:01.868Z,17.5
2022-08-14T23:12:27.359Z,17.1
2022-08-14T23:17:38.896Z,17.1
2022-08-14T23:23:07.024Z,17
2022-08-14T23:29:00.859Z,16.8
2022-08-14T23:34:21.324Z,16.5
2022-08-14T23:40:20.705Z,16.3
2022-08-14T23:45:36.701Z,16.3
2022-08-14T23:51:24.364Z,16.2
2022-08-14T23:56:39.420Z,16.2
